sensor_id;sensor_type;location;lat;lon;timestamp;P1;durP1;ratioP1;P2;durP2;ratioP2
27305;SDS011;14792;50.886;6.468;2023-06-04T00:02:43;4.12;;;1.70;;
27305;SDS011;14792;50.886;6.468;2023-06-04T00:05:45;9.48;;;1.67;;
27305;SDS011;14792;50.886;6.468;2023-06-04T00:08:46;7.17;;;1.35;;
27305;SDS011;14792;50.886;6.468;2023-06-04T00:11:48;8.43;;;1.62;;
27305;SDS011;14792;50.886;6.468;2023-06-04T00:14:49;9.80;;;1.50;;
27305;SDS011;14792;50.886;6.468;2023-06-04T00:17:51;13.60;;;1.95;;
27305;SDS011;14792;50.886;6.468;2023-06-04T00:20:53;6.75;;;1.90;;
27305;SDS011;14792;50.886;6.468;2023-06-04T00:23:54;9.40;;;2.02;;
27305;SDS011;14792;50.886;6.468;2023-06-04T00:26:56;5.80;;;1.55;;
27305;SDS011;14792;50.886;6.468;2023-06-04T00:29:57;7.50;;;1.57;;
27305;SDS011;14792;50.886;6.468;2023-06-04T00:32:59;6.30;;;1.72;;
27305;SDS011;14792;50.886;6.468;2023-06-04T00:36:01;5.92;;;1.60;;
27305;SDS011;14792;50.886;6.468;2023-06-04T00:39:02;9.35;;;1.87;;
27305;SDS011;14792;50.886;6.468;2023-06-04T00:42:07;4.62;;;1.55;;
27305;SDS011;14792;50.886;6.468;2023-06-04T00:45:08;5.90;;;1.65;;
27305;SDS011;14792;50.886;6.468;2023-06-04T00:48:10;7.60;;;2.17;;
27305;SDS011;14792;50.886;6.468;2023-06-04T00:51:12;8.38;;;2.10;;
27305;SDS011;14792;50.886;6.468;2023-06-04T00:54:13;5.47;;;2.50;;
27305;SDS011;14792;50.886;6.468;2023-06-04T00:57:15;8.15;;;2.30;;
27305;SDS011;14792;50.886;6.468;2023-06-04T01:00:16;10.93;;;2.62;;
27305;SDS011;14792;50.886;6.468;2023-06-04T01:03:18;6.85;;;2.02;;
27305;SDS011;14792;50.886;6.468;2023-06-04T01:06:36;4.60;;;1.82;;
27305;SDS011;14792;50.886;6.468;2023-06-04T01:09:39;6.20;;;2.40;;
27305;SDS011;14792;50.886;6.468;2023-06-04T01:12:41;5.75;;;1.87;;
27305;SDS011;14792;50.886;6.468;2023-06-04T01:15:45;7.70;;;1.82;;
27305;SDS011;14792;50.886;6.468;2023-06-04T01:18:47;10.13;;;2.15;;
27305;SDS011;14792;50.886;6.468;2023-06-04T01:21:49;8.50;;;1.90;;
27305;SDS011;14792;50.886;6.468;2023-06-04T01:24:51;8.53;;;1.98;;
27305;SDS011;14792;50.886;6.468;2023-06-04T01:27:53;8.75;;;2.47;;
27305;SDS011;14792;50.886;6.468;2023-06-04T01:30:53;10.25;;;2.72;;
27305;SDS011;14792;50.886;6.468;2023-06-04T01:33:55;7.03;;;2.47;;
27305;SDS011;14792;50.886;6.468;2023-06-04T01:36:59;10.13;;;2.27;;
27305;SDS011;14792;50.886;6.468;2023-06-04T01:40:00;6.90;;;2.00;;
27305;SDS011;14792;50.886;6.468;2023-06-04T01:43:02;9.05;;;1.80;;
27305;SDS011;14792;50.886;6.468;2023-06-04T01:46:04;7.83;;;1.75;;
27305;SDS011;14792;50.886;6.468;2023-06-04T01:49:08;6.35;;;2.25;;
27305;SDS011;14792;50.886;6.468;2023-06-04T01:52:10;9.73;;;1.47;;
27305;SDS011;14792;50.886;6.468;2023-06-04T01:55:13;6.67;;;1.70;;
27305;SDS011;14792;50.886;6.468;2023-06-04T01:58:14;6.28;;;1.67;;
27305;SDS011;14792;50.886;6.468;2023-06-04T02:01:15;5.15;;;1.50;;
27305;SDS011;14792;50.886;6.468;2023-06-04T02:04:17;6.90;;;1.77;;
27305;SDS011;14792;50.886;6.468;2023-06-04T02:07:18;8.40;;;2.08;;
27305;SDS011;14792;50.886;6.468;2023-06-04T02:10:20;5.65;;;1.80;;
27305;SDS011;14792;50.886;6.468;2023-06-04T02:13:22;4.97;;;1.80;;
27305;SDS011;14792;50.886;6.468;2023-06-04T02:16:23;8.35;;;1.95;;
27305;SDS011;14792;50.886;6.468;2023-06-04T02:19:26;6.95;;;2.15;;
27305;SDS011;14792;50.886;6.468;2023-06-04T02:22:29;4.42;;;1.70;;
27305;SDS011;14792;50.886;6.468;2023-06-04T02:25:30;9.35;;;1.87;;
27305;SDS011;14792;50.886;6.468;2023-06-04T02:28:32;5.65;;;2.20;;
27305;SDS011;14792;50.886;6.468;2023-06-04T02:31:34;10.38;;;3.15;;
27305;SDS011;14792;50.886;6.468;2023-06-04T02:34:35;7.28;;;2.02;;
27305;SDS011;14792;50.886;6.468;2023-06-04T02:37:37;7.35;;;2.20;;
27305;SDS011;14792;50.886;6.468;2023-06-04T02:40:38;6.83;;;2.08;;
27305;SDS011;14792;50.886;6.468;2023-06-04T02:43:40;3.85;;;2.00;;
27305;SDS011;14792;50.886;6.468;2023-06-04T02:46:41;7.15;;;2.05;;
27305;SDS011;14792;50.886;6.468;2023-06-04T02:49:43;5.75;;;2.12;;
27305;SDS011;14792;50.886;6.468;2023-06-04T02:52:45;8.18;;;2.47;;
27305;SDS011;14792;50.886;6.468;2023-06-04T02:55:46;7.25;;;1.82;;
27305;SDS011;14792;50.886;6.468;2023-06-04T02:58:52;11.10;;;2.98;;
27305;SDS011;14792;50.886;6.468;2023-06-04T03:01:49;7.78;;;2.80;;
27305;SDS011;14792;50.886;6.468;2023-06-04T03:04:51;10.13;;;3.10;;
27305;SDS011;14792;50.886;6.468;2023-06-04T03:07:53;17.07;;;4.55;;
27305;SDS011;14792;50.886;6.468;2023-06-04T03:10:55;15.72;;;3.67;;
27305;SDS011;14792;50.886;6.468;2023-06-04T03:17:00;11.48;;;4.35;;
27305;SDS011;14792;50.886;6.468;2023-06-04T03:19:59;13.05;;;4.78;;
27305;SDS011;14792;50.886;6.468;2023-06-04T03:23:01;13.30;;;4.55;;
27305;SDS011;14792;50.886;6.468;2023-06-04T03:26:02;16.27;;;4.35;;
27305;SDS011;14792;50.886;6.468;2023-06-04T03:29:04;13.55;;;4.72;;
27305;SDS011;14792;50.886;6.468;2023-06-04T03:32:06;17.20;;;5.65;;
27305;SDS011;14792;50.886;6.468;2023-06-04T03:35:07;13.15;;;4.50;;
27305;SDS011;14792;50.886;6.468;2023-06-04T03:38:10;14.03;;;4.20;;
27305;SDS011;14792;50.886;6.468;2023-06-04T03:41:11;16.05;;;4.67;;
27305;SDS011;14792;50.886;6.468;2023-06-04T03:44:13;12.07;;;4.37;;
27305;SDS011;14792;50.886;6.468;2023-06-04T03:47:15;18.85;;;3.92;;
27305;SDS011;14792;50.886;6.468;2023-06-04T03:50:17;14.53;;;3.85;;
27305;SDS011;14792;50.886;6.468;2023-06-04T03:53:18;12.10;;;3.30;;
27305;SDS011;14792;50.886;6.468;2023-06-04T03:56:19;13.40;;;3.37;;
27305;SDS011;14792;50.886;6.468;2023-06-04T03:59:21;9.50;;;3.12;;
27305;SDS011;14792;50.886;6.468;2023-06-04T04:02:23;12.30;;;2.98;;
27305;SDS011;14792;50.886;6.468;2023-06-04T04:05:25;4.60;;;2.50;;
27305;SDS011;14792;50.886;6.468;2023-06-04T04:08:26;8.00;;;2.67;;
27305;SDS011;14792;50.886;6.468;2023-06-04T04:11:31;7.80;;;2.58;;
27305;SDS011;14792;50.886;6.468;2023-06-04T04:14:32;13.85;;;2.70;;
27305;SDS011;14792;50.886;6.468;2023-06-04T04:17:34;11.83;;;3.12;;
27305;SDS011;14792;50.886;6.468;2023-06-04T04:20:35;7.78;;;3.25;;
27305;SDS011;14792;50.886;6.468;2023-06-04T04:23:37;6.95;;;2.65;;
27305;SDS011;14792;50.886;6.468;2023-06-04T04:26:38;8.90;;;2.65;;
27305;SDS011;14792;50.886;6.468;2023-06-04T04:29:40;4.72;;;2.30;;
27305;SDS011;14792;50.886;6.468;2023-06-04T04:32:42;9.28;;;2.87;;
27305;SDS011;14792;50.886;6.468;2023-06-04T04:35:44;9.60;;;2.60;;
27305;SDS011;14792;50.886;6.468;2023-06-04T04:38:45;9.23;;;2.98;;
27305;SDS011;14792;50.886;6.468;2023-06-04T04:41:46;7.42;;;2.80;;
27305;SDS011;14792;50.886;6.468;2023-06-04T04:44:49;5.70;;;2.37;;
27305;SDS011;14792;50.886;6.468;2023-06-04T04:47:50;8.48;;;2.75;;
27305;SDS011;14792;50.886;6.468;2023-06-04T04:50:54;5.50;;;2.62;;
27305;SDS011;14792;50.886;6.468;2023-06-04T04:53:57;8.68;;;2.25;;
27305;SDS011;14792;50.886;6.468;2023-06-04T04:56:58;11.57;;;3.15;;
27305;SDS011;14792;50.886;6.468;2023-06-04T04:59:59;4.80;;;2.20;;
27305;SDS011;14792;50.886;6.468;2023-06-04T05:03:01;6.25;;;2.70;;
27305;SDS011;14792;50.886;6.468;2023-06-04T05:06:02;7.60;;;2.58;;
27305;SDS011;14792;50.886;6.468;2023-06-04T05:09:04;11.22;;;2.60;;
27305;SDS011;14792;50.886;6.468;2023-06-04T05:12:06;10.98;;;2.80;;
27305;SDS011;14792;50.886;6.468;2023-06-04T05:15:07;6.47;;;2.52;;
27305;SDS011;14792;50.886;6.468;2023-06-04T05:18:09;6.92;;;2.75;;
27305;SDS011;14792;50.886;6.468;2023-06-04T05:21:10;8.80;;;2.47;;
27305;SDS011;14792;50.886;6.468;2023-06-04T05:24:12;16.60;;;2.72;;
27305;SDS011;14792;50.886;6.468;2023-06-04T05:27:14;17.65;;;3.05;;
27305;SDS011;14792;50.886;6.468;2023-06-04T05:30:15;9.18;;;2.55;;
27305;SDS011;14792;50.886;6.468;2023-06-04T05:33:17;14.47;;;3.47;;
27305;SDS011;14792;50.886;6.468;2023-06-04T05:36:19;10.63;;;2.77;;
27305;SDS011;14792;50.886;6.468;2023-06-04T05:39:20;21.23;;;3.02;;
27305;SDS011;14792;50.886;6.468;2023-06-04T05:42:22;9.88;;;2.95;;
27305;SDS011;14792;50.886;6.468;2023-06-04T05:45:23;16.45;;;2.83;;
27305;SDS011;14792;50.886;6.468;2023-06-04T05:48:25;15.30;;;2.90;;
27305;SDS011;14792;50.886;6.468;2023-06-04T05:51:26;13.32;;;2.75;;
27305;SDS011;14792;50.886;6.468;2023-06-04T05:54:28;14.98;;;3.17;;
27305;SDS011;14792;50.886;6.468;2023-06-04T05:57:30;13.22;;;2.60;;
27305;SDS011;14792;50.886;6.468;2023-06-04T06:00:32;11.20;;;2.70;;
27305;SDS011;14792;50.886;6.468;2023-06-04T06:03:34;13.30;;;2.40;;
27305;SDS011;14792;50.886;6.468;2023-06-04T06:06:36;7.17;;;2.85;;
27305;SDS011;14792;50.886;6.468;2023-06-04T06:09:38;11.97;;;3.10;;
27305;SDS011;14792;50.886;6.468;2023-06-04T06:12:39;10.48;;;2.70;;
27305;SDS011;14792;50.886;6.468;2023-06-04T06:15:41;11.75;;;2.90;;
27305;SDS011;14792;50.886;6.468;2023-06-04T06:18:42;12.37;;;3.15;;
27305;SDS011;14792;50.886;6.468;2023-06-04T06:21:44;18.37;;;3.50;;
27305;SDS011;14792;50.886;6.468;2023-06-04T06:24:49;15.70;;;3.15;;
27305;SDS011;14792;50.886;6.468;2023-06-04T06:27:50;13.93;;;2.62;;
27305;SDS011;14792;50.886;6.468;2023-06-04T06:30:52;16.50;;;2.98;;
27305;SDS011;14792;50.886;6.468;2023-06-04T06:33:54;14.58;;;2.90;;
27305;SDS011;14792;50.886;6.468;2023-06-04T06:36:56;16.20;;;2.80;;
27305;SDS011;14792;50.886;6.468;2023-06-04T06:39:57;15.50;;;2.90;;
27305;SDS011;14792;50.886;6.468;2023-06-04T06:42:59;15.53;;;2.77;;
27305;SDS011;14792;50.886;6.468;2023-06-04T06:46:00;14.55;;;2.77;;
27305;SDS011;14792;50.886;6.468;2023-06-04T06:49:02;15.35;;;2.65;;
27305;SDS011;14792;50.886;6.468;2023-06-04T06:52:04;23.57;;;2.52;;
27305;SDS011;14792;50.886;6.468;2023-06-04T06:55:05;11.25;;;2.50;;
27305;SDS011;14792;50.886;6.468;2023-06-04T06:58:07;12.25;;;2.58;;
27305;SDS011;14792;50.886;6.468;2023-06-04T07:01:08;17.12;;;2.60;;
27305;SDS011;14792;50.886;6.468;2023-06-04T07:04:10;18.23;;;2.52;;
27305;SDS011;14792;50.886;6.468;2023-06-04T07:07:12;9.25;;;2.30;;
27305;SDS011;14792;50.886;6.468;2023-06-04T07:10:13;18.42;;;2.62;;
27305;SDS011;14792;50.886;6.468;2023-06-04T07:13:15;10.18;;;2.25;;
27305;SDS011;14792;50.886;6.468;2023-06-04T07:16:16;12.93;;;2.45;;
27305;SDS011;14792;50.886;6.468;2023-06-04T07:19:18;17.57;;;2.75;;
27305;SDS011;14792;50.886;6.468;2023-06-04T07:22:19;19.95;;;2.60;;
27305;SDS011;14792;50.886;6.468;2023-06-04T07:25:21;12.85;;;2.12;;
27305;SDS011;14792;50.886;6.468;2023-06-04T07:28:23;13.55;;;2.40;;
27305;SDS011;14792;50.886;6.468;2023-06-04T07:31:24;10.85;;;2.30;;
27305;SDS011;14792;50.886;6.468;2023-06-04T07:34:26;8.33;;;2.55;;
27305;SDS011;14792;50.886;6.468;2023-06-04T07:37:27;17.70;;;2.20;;
27305;SDS011;14792;50.886;6.468;2023-06-04T07:40:29;7.30;;;2.20;;
27305;SDS011;14792;50.886;6.468;2023-06-04T07:43:32;13.53;;;2.20;;
27305;SDS011;14792;50.886;6.468;2023-06-04T07:46:32;5.90;;;2.00;;
27305;SDS011;14792;50.886;6.468;2023-06-04T07:49:34;8.80;;;1.75;;
27305;SDS011;14792;50.886;6.468;2023-06-04T07:52:35;8.73;;;2.10;;
27305;SDS011;14792;50.886;6.468;2023-06-04T07:55:37;10.20;;;2.33;;
27305;SDS011;14792;50.886;6.468;2023-06-04T07:58:39;7.17;;;2.50;;
27305;SDS011;14792;50.886;6.468;2023-06-04T08:01:40;14.55;;;2.35;;
27305;SDS011;14792;50.886;6.468;2023-06-04T08:04:42;8.38;;;2.12;;
27305;SDS011;14792;50.886;6.468;2023-06-04T08:07:43;9.25;;;2.20;;
27305;SDS011;14792;50.886;6.468;2023-06-04T08:10:45;8.48;;;2.45;;
27305;SDS011;14792;50.886;6.468;2023-06-04T08:13:46;3.83;;;2.22;;
27305;SDS011;14792;50.886;6.468;2023-06-04T08:16:48;8.13;;;2.00;;
27305;SDS011;14792;50.886;6.468;2023-06-04T08:19:50;9.55;;;2.27;;
27305;SDS011;14792;50.886;6.468;2023-06-04T08:22:51;10.13;;;2.15;;
27305;SDS011;14792;50.886;6.468;2023-06-04T08:25:53;6.10;;;2.08;;
27305;SDS011;14792;50.886;6.468;2023-06-04T08:28:54;9.30;;;2.02;;
27305;SDS011;14792;50.886;6.468;2023-06-04T08:31:56;10.18;;;2.37;;
27305;SDS011;14792;50.886;6.468;2023-06-04T08:34:58;8.38;;;2.37;;
27305;SDS011;14792;50.886;6.468;2023-06-04T08:37:59;12.15;;;1.95;;
27305;SDS011;14792;50.886;6.468;2023-06-04T08:41:06;8.55;;;2.45;;
27305;SDS011;14792;50.886;6.468;2023-06-04T08:44:02;9.78;;;2.05;;
27305;SDS011;14792;50.886;6.468;2023-06-04T08:47:05;5.65;;;2.12;;
27305;SDS011;14792;50.886;6.468;2023-06-04T08:50:06;9.20;;;1.60;;
27305;SDS011;14792;50.886;6.468;2023-06-04T08:53:07;7.78;;;1.90;;
27305;SDS011;14792;50.886;6.468;2023-06-04T08:56:09;3.77;;;1.80;;
27305;SDS011;14792;50.886;6.468;2023-06-04T08:59:10;5.12;;;1.70;;
27305;SDS011;14792;50.886;6.468;2023-06-04T09:02:15;4.53;;;1.98;;
27305;SDS011;14792;50.886;6.468;2023-06-04T09:05:20;5.33;;;1.82;;
27305;SDS011;14792;50.886;6.468;2023-06-04T09:08:21;8.50;;;1.87;;
27305;SDS011;14792;50.886;6.468;2023-06-04T09:11:22;8.73;;;1.70;;
27305;SDS011;14792;50.886;6.468;2023-06-04T09:14:24;8.08;;;1.67;;
27305;SDS011;14792;50.886;6.468;2023-06-04T09:17:25;8.60;;;2.08;;
27305;SDS011;14792;50.886;6.468;2023-06-04T09:20:27;9.10;;;1.65;;
27305;SDS011;14792;50.886;6.468;2023-06-04T09:23:28;5.35;;;1.60;;
27305;SDS011;14792;50.886;6.468;2023-06-04T09:26:30;4.12;;;1.57;;
27305;SDS011;14792;50.886;6.468;2023-06-04T09:29:32;3.85;;;1.87;;
27305;SDS011;14792;50.886;6.468;2023-06-04T09:32:33;9.13;;;2.12;;
27305;SDS011;14792;50.886;6.468;2023-06-04T09:35:35;5.62;;;1.70;;
27305;SDS011;14792;50.886;6.468;2023-06-04T09:38:37;8.33;;;1.82;;
27305;SDS011;14792;50.886;6.468;2023-06-04T09:41:38;6.03;;;1.95;;
27305;SDS011;14792;50.886;6.468;2023-06-04T09:44:43;5.90;;;1.70;;
27305;SDS011;14792;50.886;6.468;2023-06-04T09:47:44;5.62;;;1.85;;
27305;SDS011;14792;50.886;6.468;2023-06-04T09:50:45;3.27;;;1.70;;
27305;SDS011;14792;50.886;6.468;2023-06-04T09:53:56;6.90;;;1.90;;
27305;SDS011;14792;50.886;6.468;2023-06-04T09:56:55;3.95;;;1.70;;
27305;SDS011;14792;50.886;6.468;2023-06-04T09:59:56;5.40;;;1.62;;
27305;SDS011;14792;50.886;6.468;2023-06-04T10:02:58;3.62;;;1.55;;
27305;SDS011;14792;50.886;6.468;2023-06-04T10:06:01;4.95;;;1.67;;
27305;SDS011;14792;50.886;6.468;2023-06-04T10:09:07;4.35;;;1.70;;
27305;SDS011;14792;50.886;6.468;2023-06-04T10:12:08;8.25;;;2.02;;
27305;SDS011;14792;50.886;6.468;2023-06-04T10:15:13;7.17;;;1.60;;
27305;SDS011;14792;50.886;6.468;2023-06-04T10:18:15;3.67;;;1.37;;
27305;SDS011;14792;50.886;6.468;2023-06-04T10:21:16;7.60;;;1.67;;
27305;SDS011;14792;50.886;6.468;2023-06-04T10:24:17;3.37;;;1.40;;
27305;SDS011;14792;50.886;6.468;2023-06-04T10:27:19;4.25;;;1.75;;
27305;SDS011;14792;50.886;6.468;2023-06-04T10:30:21;6.45;;;1.40;;
27305;SDS011;14792;50.886;6.468;2023-06-04T10:33:22;7.22;;;1.30;;
27305;SDS011;14792;50.886;6.468;2023-06-04T10:36:27;3.47;;;1.42;;
27305;SDS011;14792;50.886;6.468;2023-06-04T10:39:29;7.30;;;1.77;;
27305;SDS011;14792;50.886;6.468;2023-06-04T10:42:37;7.37;;;1.67;;
27305;SDS011;14792;50.886;6.468;2023-06-04T10:45:32;6.37;;;1.75;;
27305;SDS011;14792;50.886;6.468;2023-06-04T10:48:33;11.45;;;2.02;;
27305;SDS011;14792;50.886;6.468;2023-06-04T10:51:35;6.75;;;1.60;;
27305;SDS011;14792;50.886;6.468;2023-06-04T10:54:36;3.67;;;1.40;;
27305;SDS011;14792;50.886;6.468;2023-06-04T10:57:38;7.05;;;1.62;;
27305;SDS011;14792;50.886;6.468;2023-06-04T11:00:41;8.10;;;1.60;;
27305;SDS011;14792;50.886;6.468;2023-06-04T11:03:44;5.60;;;1.60;;
27305;SDS011;14792;50.886;6.468;2023-06-04T11:06:45;5.40;;;1.57;;
27305;SDS011;14792;50.886;6.468;2023-06-04T11:09:48;2.72;;;1.25;;
27305;SDS011;14792;50.886;6.468;2023-06-04T11:12:49;5.20;;;1.47;;
27305;SDS011;14792;50.886;6.468;2023-06-04T11:15:53;6.28;;;1.20;;
27305;SDS011;14792;50.886;6.468;2023-06-04T11:18:55;3.02;;;1.30;;
27305;SDS011;14792;50.886;6.468;2023-06-04T11:21:57;4.70;;;1.75;;
27305;SDS011;14792;50.886;6.468;2023-06-04T11:24:58;5.75;;;1.30;;
27305;SDS011;14792;50.886;6.468;2023-06-04T11:28:00;4.65;;;1.40;;
27305;SDS011;14792;50.886;6.468;2023-06-04T11:31:02;2.70;;;1.37;;
27305;SDS011;14792;50.886;6.468;2023-06-04T11:34:03;7.92;;;1.75;;
27305;SDS011;14792;50.886;6.468;2023-06-04T11:37:08;5.35;;;1.62;;
27305;SDS011;14792;50.886;6.468;2023-06-04T11:40:19;3.95;;;1.67;;
27305;SDS011;14792;50.886;6.468;2023-06-04T11:43:20;2.50;;;1.50;;
27305;SDS011;14792;50.886;6.468;2023-06-04T11:46:21;4.05;;;1.47;;
27305;SDS011;14792;50.886;6.468;2023-06-04T11:49:23;5.28;;;1.60;;
27305;SDS011;14792;50.886;6.468;2023-06-04T11:52:24;7.03;;;1.65;;
27305;SDS011;14792;50.886;6.468;2023-06-04T11:55:26;5.20;;;1.55;;
27305;SDS011;14792;50.886;6.468;2023-06-04T11:58:28;3.02;;;1.50;;
27305;SDS011;14792;50.886;6.468;2023-06-04T12:01:29;12.78;;;1.60;;
27305;SDS011;14792;50.886;6.468;2023-06-04T12:04:31;3.67;;;1.57;;
27305;SDS011;14792;50.886;6.468;2023-06-04T12:07:32;6.62;;;1.70;;
27305;SDS011;14792;50.886;6.468;2023-06-04T12:10:37;8.13;;;1.50;;
27305;SDS011;14792;50.886;6.468;2023-06-04T12:13:41;3.80;;;1.60;;
27305;SDS011;14792;50.886;6.468;2023-06-04T12:16:42;6.67;;;1.50;;
27305;SDS011;14792;50.886;6.468;2023-06-04T12:19:48;3.95;;;1.30;;
27305;SDS011;14792;50.886;6.468;2023-06-04T12:22:51;5.12;;;1.55;;
27305;SDS011;14792;50.886;6.468;2023-06-04T12:25:53;7.92;;;1.50;;
27305;SDS011;14792;50.886;6.468;2023-06-04T12:28:58;4.22;;;1.65;;
27305;SDS011;14792;50.886;6.468;2023-06-04T12:32:05;6.60;;;1.45;;
27305;SDS011;14792;50.886;6.468;2023-06-04T12:35:07;3.15;;;1.30;;
27305;SDS011;14792;50.886;6.468;2023-06-04T12:38:08;5.33;;;1.60;;
27305;SDS011;14792;50.886;6.468;2023-06-04T12:41:10;3.80;;;1.37;;
27305;SDS011;14792;50.886;6.468;2023-06-04T12:44:11;6.75;;;2.00;;
27305;SDS011;14792;50.886;6.468;2023-06-04T12:47:13;9.13;;;1.80;;
27305;SDS011;14792;50.886;6.468;2023-06-04T12:50:14;7.20;;;1.82;;
27305;SDS011;14792;50.886;6.468;2023-06-04T12:53:16;2.50;;;1.32;;
27305;SDS011;14792;50.886;6.468;2023-06-04T12:56:18;7.35;;;1.57;;
27305;SDS011;14792;50.886;6.468;2023-06-04T12:59:19;8.10;;;1.70;;
27305;SDS011;14792;50.886;6.468;2023-06-04T13:02:21;5.55;;;1.70;;
27305;SDS011;14792;50.886;6.468;2023-06-04T13:05:22;2.50;;;1.35;;
27305;SDS011;14792;50.886;6.468;2023-06-04T13:08:24;4.00;;;1.70;;
27305;SDS011;14792;50.886;6.468;2023-06-04T13:11:26;2.55;;;1.27;;
27305;SDS011;14792;50.886;6.468;2023-06-04T13:17:28;6.15;;;1.98;;
27305;SDS011;14792;50.886;6.468;2023-06-04T13:20:30;4.83;;;2.05;;
27305;SDS011;14792;50.886;6.468;2023-06-04T13:23:32;9.45;;;1.57;;
27305;SDS011;14792;50.886;6.468;2023-06-04T13:26:33;4.65;;;1.60;;
27305;SDS011;14792;50.886;6.468;2023-06-04T13:29:35;3.25;;;1.60;;
27305;SDS011;14792;50.886;6.468;2023-06-04T13:32:36;6.72;;;1.80;;
27305;SDS011;14792;50.886;6.468;2023-06-04T13:35:38;2.52;;;1.47;;
27305;SDS011;14792;50.886;6.468;2023-06-04T13:38:40;4.90;;;1.72;;
27305;SDS011;14792;50.886;6.468;2023-06-04T13:41:41;5.97;;;1.67;;
27305;SDS011;14792;50.886;6.468;2023-06-04T13:44:43;4.55;;;1.60;;
27305;SDS011;14792;50.886;6.468;2023-06-04T13:47:44;5.08;;;1.57;;
27305;SDS011;14792;50.886;6.468;2023-06-04T13:50:46;5.37;;;2.10;;
27305;SDS011;14792;50.886;6.468;2023-06-04T13:53:48;5.40;;;1.87;;
27305;SDS011;14792;50.886;6.468;2023-06-04T13:56:49;2.27;;;1.40;;
27305;SDS011;14792;50.886;6.468;2023-06-04T13:59:51;5.72;;;1.70;;
27305;SDS011;14792;50.886;6.468;2023-06-04T14:02:52;4.50;;;1.80;;
27305;SDS011;14792;50.886;6.468;2023-06-04T14:05:54;4.10;;;1.60;;
27305;SDS011;14792;50.886;6.468;2023-06-04T14:11:57;5.40;;;3.37;;
27305;SDS011;14792;50.886;6.468;2023-06-04T14:14:59;5.67;;;1.80;;
27305;SDS011;14792;50.886;6.468;2023-06-04T14:18:00;4.42;;;1.50;;
27305;SDS011;14792;50.886;6.468;2023-06-04T14:21:02;4.50;;;1.67;;
27305;SDS011;14792;50.886;6.468;2023-06-04T14:24:03;7.83;;;2.30;;
27305;SDS011;14792;50.886;6.468;2023-06-04T14:27:05;5.78;;;1.90;;
27305;SDS011;14792;50.886;6.468;2023-06-04T14:30:07;2.52;;;1.75;;
27305;SDS011;14792;50.886;6.468;2023-06-04T14:33:08;4.03;;;1.85;;
27305;SDS011;14792;50.886;6.468;2023-06-04T14:36:10;7.20;;;1.75;;
27305;SDS011;14792;50.886;6.468;2023-06-04T14:39:11;2.17;;;1.50;;
27305;SDS011;14792;50.886;6.468;2023-06-04T14:42:13;3.42;;;1.77;;
27305;SDS011;14792;50.886;6.468;2023-06-04T14:45:15;3.87;;;1.87;;
27305;SDS011;14792;50.886;6.468;2023-06-04T14:48:16;3.05;;;1.70;;
27305;SDS011;14792;50.886;6.468;2023-06-04T14:51:18;2.98;;;1.67;;
27305;SDS011;14792;50.886;6.468;2023-06-04T14:54:19;3.37;;;1.65;;
27305;SDS011;14792;50.886;6.468;2023-06-04T14:57:21;6.28;;;1.77;;
27305;SDS011;14792;50.886;6.468;2023-06-04T15:00:23;4.97;;;1.77;;
27305;SDS011;14792;50.886;6.468;2023-06-04T15:03:26;7.33;;;1.70;;
27305;SDS011;14792;50.886;6.468;2023-06-04T15:06:28;3.35;;;1.57;;
27305;SDS011;14792;50.886;6.468;2023-06-04T15:09:29;5.28;;;1.60;;
27305;SDS011;14792;50.886;6.468;2023-06-04T15:12:31;3.20;;;1.67;;
27305;SDS011;14792;50.886;6.468;2023-06-04T15:15:33;4.45;;;1.77;;
27305;SDS011;14792;50.886;6.468;2023-06-04T15:18:34;2.52;;;1.60;;
27305;SDS011;14792;50.886;6.468;2023-06-04T15:21:36;3.10;;;1.40;;
27305;SDS011;14792;50.886;6.468;2023-06-04T15:24:37;5.25;;;1.62;;
27305;SDS011;14792;50.886;6.468;2023-06-04T15:27:39;2.85;;;1.65;;
27305;SDS011;14792;50.886;6.468;2023-06-04T15:30:40;4.72;;;1.62;;
27305;SDS011;14792;50.886;6.468;2023-06-04T15:33:42;3.15;;;1.92;;
27305;SDS011;14792;50.886;6.468;2023-06-04T15:36:44;3.02;;;1.57;;
27305;SDS011;14792;50.886;6.468;2023-06-04T15:39:45;2.77;;;1.65;;
27305;SDS011;14792;50.886;6.468;2023-06-04T15:42:47;3.65;;;2.00;;
27305;SDS011;14792;50.886;6.468;2023-06-04T15:45:48;5.40;;;1.85;;
27305;SDS011;14792;50.886;6.468;2023-06-04T15:48:50;4.25;;;2.10;;
27305;SDS011;14792;50.886;6.468;2023-06-04T15:51:52;4.40;;;1.55;;
27305;SDS011;14792;50.886;6.468;2023-06-04T15:54:53;3.80;;;1.70;;
27305;SDS011;14792;50.886;6.468;2023-06-04T15:57:55;5.28;;;2.75;;
27305;SDS011;14792;50.886;6.468;2023-06-04T16:00:56;3.98;;;1.72;;
27305;SDS011;14792;50.886;6.468;2023-06-04T16:03:58;4.08;;;2.42;;
27305;SDS011;14792;50.886;6.468;2023-06-04T16:07:00;7.08;;;1.90;;
27305;SDS011;14792;50.886;6.468;2023-06-04T16:10:01;6.12;;;2.08;;
27305;SDS011;14792;50.886;6.468;2023-06-04T16:13:03;7.65;;;2.05;;
27305;SDS011;14792;50.886;6.468;2023-06-04T16:16:04;2.25;;;1.77;;
27305;SDS011;14792;50.886;6.468;2023-06-04T16:19:06;3.60;;;1.87;;
27305;SDS011;14792;50.886;6.468;2023-06-04T16:22:07;5.00;;;1.60;;
27305;SDS011;14792;50.886;6.468;2023-06-04T16:25:09;5.05;;;2.10;;
27305;SDS011;14792;50.886;6.468;2023-06-04T16:28:11;6.20;;;1.70;;
27305;SDS011;14792;50.886;6.468;2023-06-04T16:31:12;3.55;;;1.90;;
27305;SDS011;14792;50.886;6.468;2023-06-04T16:34:14;3.65;;;1.65;;
27305;SDS011;14792;50.886;6.468;2023-06-04T16:37:15;4.75;;;2.00;;
27305;SDS011;14792;50.886;6.468;2023-06-04T16:40:17;2.72;;;1.90;;
27305;SDS011;14792;50.886;6.468;2023-06-04T16:43:19;5.40;;;1.92;;
27305;SDS011;14792;50.886;6.468;2023-06-04T16:46:20;4.50;;;1.60;;
27305;SDS011;14792;50.886;6.468;2023-06-04T16:49:22;6.97;;;2.00;;
27305;SDS011;14792;50.886;6.468;2023-06-04T16:52:23;6.22;;;1.70;;
27305;SDS011;14792;50.886;6.468;2023-06-04T16:55:28;4.42;;;1.98;;
27305;SDS011;14792;50.886;6.468;2023-06-04T16:58:32;4.12;;;1.72;;
27305;SDS011;14792;50.886;6.468;2023-06-04T17:01:34;8.68;;;2.08;;
27305;SDS011;14792;50.886;6.468;2023-06-04T17:04:35;4.28;;;1.85;;
27305;SDS011;14792;50.886;6.468;2023-06-04T17:07:37;3.37;;;1.72;;
27305;SDS011;14792;50.886;6.468;2023-06-04T17:10:38;4.35;;;1.77;;
27305;SDS011;14792;50.886;6.468;2023-06-04T17:13:40;4.37;;;1.60;;
27305;SDS011;14792;50.886;6.468;2023-06-04T17:16:41;4.20;;;1.85;;
27305;SDS011;14792;50.886;6.468;2023-06-04T17:19:43;5.40;;;1.77;;
27305;SDS011;14792;50.886;6.468;2023-06-04T17:22:45;8.38;;;1.85;;
27305;SDS011;14792;50.886;6.468;2023-06-04T17:25:46;7.95;;;1.98;;
27305;SDS011;14792;50.886;6.468;2023-06-04T17:28:48;5.25;;;1.67;;
27305;SDS011;14792;50.886;6.468;2023-06-04T17:31:49;5.42;;;2.00;;
27305;SDS011;14792;50.886;6.468;2023-06-04T17:34:51;4.87;;;1.87;;
27305;SDS011;14792;50.886;6.468;2023-06-04T17:37:53;3.12;;;1.67;;
27305;SDS011;14792;50.886;6.468;2023-06-04T17:40:54;9.53;;;1.92;;
27305;SDS011;14792;50.886;6.468;2023-06-04T17:43:57;6.67;;;1.45;;
27305;SDS011;14792;50.886;6.468;2023-06-04T17:46:59;7.92;;;1.90;;
27305;SDS011;14792;50.886;6.468;2023-06-04T17:50:01;6.80;;;2.22;;
27305;SDS011;14792;50.886;6.468;2023-06-04T17:53:02;7.35;;;2.30;;
27305;SDS011;14792;50.886;6.468;2023-06-04T17:56:04;10.43;;;2.45;;
27305;SDS011;14792;50.886;6.468;2023-06-04T17:59:05;6.78;;;1.72;;
27305;SDS011;14792;50.886;6.468;2023-06-04T18:02:07;15.43;;;2.17;;
27305;SDS011;14792;50.886;6.468;2023-06-04T18:05:09;7.22;;;2.00;;
27305;SDS011;14792;50.886;6.468;2023-06-04T18:08:10;4.75;;;1.90;;
27305;SDS011;14792;50.886;6.468;2023-06-04T18:11:12;6.22;;;1.98;;
27305;SDS011;14792;50.886;6.468;2023-06-04T18:14:13;6.33;;;1.85;;
27305;SDS011;14792;50.886;6.468;2023-06-04T18:17:15;8.53;;;2.05;;
27305;SDS011;14792;50.886;6.468;2023-06-04T18:20:17;8.38;;;1.90;;
27305;SDS011;14792;50.886;6.468;2023-06-04T18:23:18;8.93;;;1.80;;